Rollins, Montana
Current Conditions -  °F | °C
As of 6:55 AM on Friday 24 Oct 2014 (Local Time) from KGPI Reporting Station
Clear Clear  
Wind Chill: 39°   Ceiling: Unl
Heat Index: 42°   Visibility: 10mi
Dew Point: 36°   Wind: 5mph
Humidity: 79%   Direction: 180°S
Pressure: 30.04"   Gusts: NA
Location:  47.91°N, 114.21°W
Report Text: KGPI 241255Z AUTO 18004KT 10SM CLR 06/02 A3004 RMK AO2 SLP181 T00560022
Loading
Personal Weather Stations






























Interactive Weather Map
Tropical Storm Tracking
New forecast layout! Learn more

10-Day Weather Forecast

Advertisements
Track Severe Weather on mobile